Time;durP1;ratioP1;P1;durP2;ratioP2;P2;SDS_P1;SDS_P2;PMS_P1;PMS_P2;Temp;Humidity;BMP_temperature;BMP_pressure;BME280_temperature;BME280_humidity;BME280_pressure;Samples;Min_cycle;Max_cycle;Signal;HPM_P1;HPM_P2
2022/03/03 00:00:22;;;;;;;41.38;23.13;;;0.80;99.90;;;;;;5151384;27;20022;-57
2022/03/03 00:02:48;;;;;;;41.28;21.77;;;0.80;99.90;;;;;;5150994;27;20067;-57
2022/03/03 00:05:14;;;;;;;42.88;22.08;;;0.80;99.90;;;;;;5152095;27;20029;-57
2022/03/03 00:07:40;;;;;;;41.78;20.98;;;0.80;99.90;;;;;;5151925;27;20030;-57
2022/03/03 00:10:07;;;;;;;43.40;23.90;;;0.80;99.90;;;;;;5150539;27;20123;-57
2022/03/03 00:12:33;;;;;;;40.22;21.45;;;0.80;99.90;;;;;;5149768;27;20402;-57
2022/03/03 00:14:59;;;;;;;37.50;20.50;;;0.80;99.90;;;;;;5139365;27;20163;-57
2022/03/03 00:17:24;;;;;;;38.42;21.50;;;0.70;99.90;;;;;;5141568;27;20019;-57
2022/03/03 00:19:50;;;;;;;36.35;21.55;;;0.70;99.90;;;;;;5151584;27;20019;-57
2022/03/03 00:22:16;;;;;;;39.15;21.00;;;0.60;99.90;;;;;;5151050;27;20015;-57
2022/03/03 00:24:42;;;;;;;43.53;23.55;;;0.70;99.90;;;;;;5151637;27;20023;-57
2022/03/03 00:27:08;;;;;;;38.85;23.35;;;0.70;99.90;;;;;;5150193;27;20109;-57
2022/03/03 00:29:33;;;;;;;38.40;22.17;;;0.70;99.90;;;;;;5151122;27;20482;-57
2022/03/03 00:31:59;;;;;;;41.80;23.45;;;0.70;99.90;;;;;;5150743;27;20046;-56
2022/03/03 00:34:24;;;;;;;40.42;23.00;;;0.60;99.90;;;;;;5151379;27;20522;-56
2022/03/03 00:36:51;;;;;;;41.92;22.42;;;0.60;99.90;;;;;;5151264;27;20079;-56
2022/03/03 00:39:16;;;;;;;45.10;23.70;;;0.60;99.90;;;;;;5151331;27;20027;-55
2022/03/03 00:41:42;;;;;;;43.83;23.05;;;0.60;99.90;;;;;;5150682;27;20029;-55
2022/03/03 00:44:09;;;;;;;43.13;24.35;;;0.60;99.90;;;;;;5151269;27;20019;-56
2022/03/03 00:46:38;;;;;;;44.88;23.70;;;0.60;99.90;;;;;;5133475;27;20023;-55
2022/03/03 00:49:05;;;;;;;41.95;22.35;;;0.50;99.90;;;;;;5148671;27;20495;-55
2022/03/03 00:51:31;;;;;;;40.72;21.52;;;0.40;99.90;;;;;;5148958;27;20034;-55
2022/03/03 00:53:56;;;;;;;44.17;23.48;;;0.30;99.90;;;;;;5150927;27;20053;-56
2022/03/03 00:56:22;;;;;;;44.15;22.45;;;0.30;99.90;;;;;;5150915;27;20027;-55
2022/03/03 00:58:48;;;;;;;40.47;21.65;;;0.30;99.90;;;;;;5150704;27;20030;-56
2022/03/03 01:01:14;;;;;;;36.90;21.42;;;0.20;99.90;;;;;;5148690;27;20071;-55
2022/03/03 01:03:40;;;;;;;48.08;23.20;;;0.20;99.90;;;;;;5150893;27;20122;-55
2022/03/03 01:06:06;;;;;;;38.03;20.70;;;0.20;99.90;;;;;;5150878;27;20046;-56
2022/03/03 01:08:32;;;;;;;39.65;21.52;;;0.10;99.90;;;;;;5150863;27;20023;-56
2022/03/03 01:10:57;;;;;;;44.28;21.05;;;0.00;99.90;;;;;;5150494;27;20090;-56
2022/03/03 01:13:23;;;;;;;41.80;21.23;;;0.00;99.90;;;;;;5150842;27;20034;-56
2022/03/03 01:15:50;;;;;;;36.10;21.08;;;0.10;99.90;;;;;;5138369;27;20026;-56
2022/03/03 01:18:16;;;;;;;32.08;19.08;;;0.10;99.90;;;;;;5141133;27;20098;-55
2022/03/03 01:20:42;;;;;;;40.83;21.00;;;0.10;99.90;;;;;;5150286;27;20026;-56
2022/03/03 01:23:08;;;;;;;40.50;20.40;;;0.10;99.90;;;;;;5148862;27;20172;-56
2022/03/03 01:25:33;;;;;;;40.85;22.08;;;0.10;99.90;;;;;;5150465;27;20145;-56
2022/03/03 01:27:59;;;;;;;39.88;21.02;;;0.10;99.90;;;;;;5150351;27;20022;-56
2022/03/03 01:30:24;;;;;;;38.70;21.30;;;0.00;99.90;;;;;;5150302;27;20026;-56
2022/03/03 01:32:50;;;;;;;43.30;22.58;;;0.00;99.90;;;;;;5149765;27;20435;-56
2022/03/03 01:35:15;;;;;;;41.08;21.88;;;0.00;99.90;;;;;;5150317;27;20027;-56
2022/03/03 01:37:41;;;;;;;43.78;21.92;;;-0.10;99.90;;;;;;5150128;27;20026;-56
2022/03/03 01:40:07;;;;;;;39.67;22.58;;;-0.10;99.90;;;;;;5150171;27;20018;-56
2022/03/03 01:42:33;;;;;;;36.40;19.63;;;-0.10;99.90;;;;;;5149467;27;20035;-56
2022/03/03 01:44:58;;;;;;;39.92;21.75;;;-0.20;99.90;;;;;;5140043;27;20089;-56
2022/03/03 01:47:26;;;;;;;41.67;22.10;;;-0.20;99.90;;;;;;5141653;27;20029;-56
2022/03/03 01:49:54;;;;;;;40.28;21.42;;;-0.20;99.90;;;;;;5150361;27;20037;-56
2022/03/03 01:52:20;;;;;;;36.58;20.85;;;-0.20;99.90;;;;;;5134454;27;20027;-56
2022/03/03 01:54:46;;;;;;;37.95;20.67;;;-0.20;99.90;;;;;;5112883;27;20110;-56
2022/03/03 01:57:17;;;;;;;39.45;21.48;;;-0.20;99.90;;;;;;5108867;28;20540;-56
2022/03/03 01:59:43;;;;;;;43.70;21.08;;;-0.20;99.90;;;;;;5108708;28;20073;-56
2022/03/03 02:02:10;;;;;;;38.78;19.92;;;-0.20;99.90;;;;;;5110093;28;20399;-56
2022/03/03 02:04:39;;;;;;;41.53;23.13;;;-0.20;99.90;;;;;;5120098;28;20031;-56
2022/03/03 02:07:06;;;;;;;42.38;21.33;;;-0.20;99.90;;;;;;5119332;27;20121;-56
2022/03/03 02:09:32;;;;;;;41.22;21.02;;;-0.30;99.90;;;;;;5117105;27;20028;-56
2022/03/03 02:11:57;;;;;;;40.00;21.55;;;-0.40;99.90;;;;;;5117492;28;20020;-55
2022/03/03 02:14:23;;;;;;;38.40;20.50;;;-0.50;99.90;;;;;;5107697;28;20342;-55
2022/03/03 02:16:49;;;;;;;36.05;19.85;;;-0.50;99.90;;;;;;5133866;27;20022;-55
2022/03/03 02:19:19;;;;;;;36.03;19.77;;;-0.50;99.90;;;;;;5149488;27;20082;-56
2022/03/03 02:21:50;;;;;;;41.92;19.30;;;-0.50;99.90;;;;;;5147199;27;20110;-56
2022/03/03 02:24:17;;;;;;;38.25;20.98;;;-0.50;99.90;;;;;;5150189;27;20030;-55
2022/03/03 02:26:43;;;;;;;39.35;20.40;;;-0.50;99.90;;;;;;5153214;27;20494;-55
2022/03/03 02:29:08;;;;;;;39.28;21.85;;;-0.50;99.90;;;;;;5153359;27;20026;-56
2022/03/03 02:31:34;;;;;;;35.72;21.08;;;-0.50;99.90;;;;;;5139523;27;20015;-56
2022/03/03 02:34:00;;;;;;;34.85;20.48;;;-0.50;99.90;;;;;;5112019;27;20084;-56
2022/03/03 02:36:27;;;;;;;41.08;21.05;;;-0.50;99.90;;;;;;5110678;28;20023;-56
2022/03/03 02:38:56;;;;;;;34.95;18.75;;;-0.50;99.90;;;;;;5113396;27;20102;-56
2022/03/03 02:41:23;;;;;;;33.47;18.90;;;-0.50;99.90;;;;;;5124967;27;20028;-56
2022/03/03 02:43:49;;;;;;;40.33;20.40;;;-0.50;99.90;;;;;;5113440;27;20024;-56
2022/03/03 02:46:15;;;;;;;38.28;20.05;;;-0.50;99.90;;;;;;5127115;27;20023;-56
2022/03/03 02:48:40;;;;;;;41.55;21.58;;;-0.60;99.90;;;;;;5125034;27;20032;-56
2022/03/03 02:51:07;;;;;;;41.08;22.67;;;-0.60;99.90;;;;;;5115660;27;20123;-56
2022/03/03 02:53:34;;;;;;;39.25;20.75;;;-0.70;99.90;;;;;;5119506;27;20100;-55
2022/03/03 02:56:00;;;;;;;40.33;21.80;;;-0.70;99.90;;;;;;5129205;27;20027;-55
2022/03/03 02:58:26;;;;;;;39.45;21.75;;;-0.80;99.90;;;;;;5132584;27;20472;-55
2022/03/03 03:00:52;;;;;;;37.95;19.88;;;-0.80;99.90;;;;;;5125673;27;20088;-55
2022/03/03 03:03:18;;;;;;;40.92;19.77;;;-0.80;99.90;;;;;;5117365;27;20590;-55
2022/03/03 03:05:45;;;;;;;45.67;21.77;;;-0.80;99.90;;;;;;5110676;28;20050;-56
2022/03/03 03:08:11;;;;;;;40.25;22.63;;;-0.80;99.90;;;;;;5111685;28;20323;-56
2022/03/03 03:10:37;;;;;;;38.50;22.65;;;-0.80;99.90;;;;;;5111732;28;20039;-56
2022/03/03 03:13:04;;;;;;;41.38;22.05;;;-0.80;99.90;;;;;;5109880;28;20118;-56
2022/03/03 03:15:30;;;;;;;39.25;21.42;;;-0.80;99.90;;;;;;5122097;27;20238;-56
2022/03/03 03:17:56;;;;;;;43.42;22.35;;;-0.80;99.90;;;;;;5143917;27;20022;-56
2022/03/03 03:20:21;;;;;;;44.20;21.80;;;-0.70;99.90;;;;;;5152828;27;20475;-56
2022/03/03 03:22:49;;;;;;;44.60;20.88;;;-0.80;99.90;;;;;;5152044;27;20023;-56
2022/03/03 03:25:15;;;;;;;43.53;21.15;;;-0.80;99.90;;;;;;5152848;27;20341;-56
2022/03/03 03:27:42;;;;;;;39.00;20.90;;;-0.80;99.90;;;;;;5153032;27;20104;-56
2022/03/03 03:30:09;;;;;;;41.28;22.00;;;-0.80;99.90;;;;;;5152749;27;20019;-56
2022/03/03 03:32:35;;;;;;;44.05;23.20;;;-0.80;99.90;;;;;;5152369;27;20436;-56
2022/03/03 03:35:04;;;;;;;43.30;22.63;;;-0.80;99.90;;;;;;5152269;27;20098;-56
2022/03/03 03:37:29;;;;;;;48.03;24.13;;;-0.80;99.90;;;;;;5151617;27;20034;-55
2022/03/03 03:39:55;;;;;;;46.92;25.25;;;-0.90;99.90;;;;;;5152619;27;20168;-55
2022/03/03 03:42:21;;;;;;;47.97;25.13;;;-0.90;99.90;;;;;;5151941;27;20101;-55
2022/03/03 03:44:47;;;;;;;54.88;26.95;;;-0.90;99.90;;;;;;5144383;27;20102;-55
2022/03/03 03:47:13;;;;;;;50.30;25.38;;;-0.90;99.90;;;;;;5143466;27;20047;-55
2022/03/03 03:49:39;;;;;;;46.80;24.60;;;-0.90;99.90;;;;;;5150852;27;20025;-55
2022/03/03 03:52:05;;;;;;;49.13;25.42;;;-0.90;99.90;;;;;;5151816;27;20105;-55
2022/03/03 03:54:31;;;;;;;46.10;23.63;;;-0.90;99.90;;;;;;5152394;27;20053;-55
2022/03/03 03:56:56;;;;;;;55.30;27.38;;;-0.90;99.90;;;;;;5152167;27;20083;-55
2022/03/03 03:59:22;;;;;;;51.80;27.33;;;-0.90;99.90;;;;;;5152040;27;20280;-55
2022/03/03 04:01:48;;;;;;;61.25;27.73;;;-0.90;99.90;;;;;;5150981;27;20029;-56
2022/03/03 04:04:13;;;;;;;50.70;26.60;;;-0.90;99.90;;;;;;5151940;27;20050;-56
2022/03/03 04:06:39;;;;;;;59.53;28.23;;;-1.00;99.90;;;;;;5150484;27;20083;-56
2022/03/03 04:09:04;;;;;;;52.72;26.63;;;-1.00;99.90;;;;;;5152032;27;20054;-56
2022/03/03 04:11:30;;;;;;;57.75;29.40;;;-1.00;99.90;;;;;;5150066;27;20534;-56
2022/03/03 04:13:57;;;;;;;53.03;28.52;;;-1.00;99.90;;;;;;5151726;27;20295;-56
2022/03/03 04:16:24;;;;;;;54.45;26.67;;;-1.00;99.90;;;;;;5138142;27;20076;-56
2022/03/03 04:18:49;;;;;;;56.67;27.80;;;-1.00;99.90;;;;;;5148351;27;20027;-56
2022/03/03 04:21:15;;;;;;;44.60;25.70;;;-1.00;99.90;;;;;;5151038;27;20029;-56
2022/03/03 04:23:40;;;;;;;56.70;28.15;;;-1.10;99.90;;;;;;5150195;27;20090;-56
2022/03/03 04:26:06;;;;;;;56.65;28.02;;;-1.00;99.90;;;;;;5151780;27;20416;-56
2022/03/03 04:28:31;;;;;;;49.90;26.05;;;-1.00;99.90;;;;;;5151511;27;20145;-56
2022/03/03 04:30:57;;;;;;;60.58;27.75;;;-1.10;99.90;;;;;;5150900;27;20077;-56
2022/03/03 04:33:23;;;;;;;61.97;30.80;;;-1.10;99.90;;;;;;5151319;27;20038;-56
2022/03/03 04:35:48;;;;;;;59.88;28.85;;;-1.10;99.90;;;;;;5151329;27;20022;-56
2022/03/03 04:38:14;;;;;;;69.63;30.65;;;-1.10;99.90;;;;;;5151613;27;20027;-56
2022/03/03 04:40:40;;;;;;;58.17;30.27;;;-1.10;99.90;;;;;;5148039;27;20105;-56
2022/03/03 04:43:05;;;;;;;62.47;30.05;;;-1.00;99.90;;;;;;5127704;27;20488;-57
2022/03/03 04:45:31;;;;;;;52.33;27.58;;;-1.10;99.90;;;;;;5118796;27;20114;-56
2022/03/03 04:47:56;;;;;;;63.00;30.52;;;-1.10;99.90;;;;;;5117619;27;20026;-56
2022/03/03 04:50:21;;;;;;;66.80;30.70;;;-1.10;99.90;;;;;;5120968;27;20062;-56
2022/03/03 04:52:47;;;;;;;61.30;29.75;;;-1.10;99.90;;;;;;5117834;27;20029;-56
2022/03/03 04:55:12;;;;;;;57.72;30.73;;;-1.10;99.90;;;;;;5120217;27;20027;-57
2022/03/03 04:57:38;;;;;;;54.33;28.70;;;-1.10;99.90;;;;;;5119687;27;20034;-57
2022/03/03 05:00:05;;;;;;;59.03;29.42;;;-1.10;99.90;;;;;;5118062;27;20023;-57
2022/03/03 05:02:31;;;;;;;67.88;32.17;;;-1.10;99.90;;;;;;5113191;27;20023;-57
2022/03/03 05:04:56;;;;;;;64.97;32.67;;;-1.10;99.90;;;;;;5115345;27;20027;-57
2022/03/03 05:07:22;;;;;;;66.43;31.75;;;-1.10;99.90;;;;;;5117558;27;20023;-57
2022/03/03 05:09:48;;;;;;;66.65;31.85;;;-1.10;99.90;;;;;;5117087;27;20023;-57
2022/03/03 05:12:13;;;;;;;69.28;31.90;;;-1.10;99.90;;;;;;5115407;27;20034;-57
2022/03/03 05:14:39;;;;;;;68.55;30.98;;;-1.00;99.90;;;;;;5108892;28;20020;-57
2022/03/03 05:17:04;;;;;;;68.28;33.00;;;-1.00;99.90;;;;;;5138152;27;20012;-57
2022/03/03 05:19:30;;;;;;;69.30;33.10;;;-1.00;99.90;;;;;;5150428;27;20128;-57
2022/03/03 05:21:55;;;;;;;75.50;34.90;;;-1.00;99.90;;;;;;5118431;27;20043;-56
2022/03/03 05:24:21;;;;;;;67.88;35.03;;;-1.00;99.90;;;;;;5120372;27;20045;-56
2022/03/03 05:26:46;;;;;;;112.50;53.22;;;-1.00;99.90;;;;;;5118326;27;20015;-56
2022/03/03 05:29:12;;;;;;;79.40;39.25;;;-1.10;99.90;;;;;;5123152;27;20388;-56
2022/03/03 05:31:37;;;;;;;77.75;36.90;;;-1.10;99.90;;;;;;5119667;27;20031;-57
2022/03/03 05:34:03;;;;;;;76.20;34.88;;;-1.10;99.90;;;;;;5119270;27;20499;-57
2022/03/03 05:36:29;;;;;;;81.38;37.08;;;-1.10;99.90;;;;;;5123733;27;20464;-58
2022/03/03 05:38:57;;;;;;;70.65;33.90;;;-1.10;99.90;;;;;;5117952;27;20092;-57
2022/03/03 05:41:22;;;;;;;70.32;34.13;;;-1.20;99.90;;;;;;5113728;27;20027;-56
2022/03/03 05:43:48;;;;;;;67.78;33.00;;;-1.20;99.90;;;;;;5121980;27;20024;-56
2022/03/03 05:46:15;;;;;;;64.18;30.92;;;-1.20;99.90;;;;;;5118999;28;20106;-57
2022/03/03 05:48:41;;;;;;;75.38;33.70;;;-1.30;99.90;;;;;;5119014;27;20019;-57
2022/03/03 05:51:06;;;;;;;72.95;34.67;;;-1.30;99.90;;;;;;5119338;27;20119;-57
2022/03/03 05:53:32;;;;;;;76.22;35.47;;;-1.30;99.90;;;;;;5115882;27;20424;-56
2022/03/03 05:56:01;;;;;;;69.95;33.75;;;-1.30;99.90;;;;;;5128503;28;20508;-55
2022/03/03 05:58:44;;;;;;;58.72;25.98;;;-1.30;99.90;;;;;;5129367;27;20397;-56
2022/03/03 06:01:11;;;;;;;88.18;37.33;;;-1.30;99.90;;;;;;5127624;27;20369;-56
2022/03/03 06:03:37;;;;;;;86.25;37.60;;;-1.50;99.90;;;;;;5120780;27;20099;-56
2022/03/03 06:06:25;;;;;;;85.70;39.17;;;-1.60;99.90;;;;;;5133068;27;20019;-55
2022/03/03 06:08:53;;;;;;;80.85;36.78;;;-1.50;99.90;;;;;;5120933;27;20072;-55
2022/03/03 06:11:21;;;;;;;76.93;35.58;;;-1.50;99.90;;;;;;5121104;27;20027;-55
2022/03/03 06:13:48;;;;;;;80.25;37.20;;;-1.50;99.90;;;;;;5122965;27;20249;-55
2022/03/03 06:16:18;;;;;;;77.20;36.40;;;-1.50;99.90;;;;;;5128257;27;20015;-55
2022/03/03 06:18:46;;;;;;;79.82;36.28;;;-1.40;99.90;;;;;;5124621;27;20400;-56
2022/03/03 06:21:11;;;;;;;86.10;39.35;;;-1.50;99.90;;;;;;5120666;27;20036;-56
2022/03/03 06:23:37;;;;;;;85.80;39.80;;;-1.50;99.90;;;;;;5120108;27;20457;-55
2022/03/03 06:26:12;;;;;;;74.65;35.72;;;-1.40;99.90;;;;;;5119954;27;20027;-56
2022/03/03 06:28:38;;;;;;;87.75;39.38;;;-1.40;99.90;;;;;;5121661;27;20526;-56
2022/03/03 06:31:07;;;;;;;80.90;36.13;;;-1.40;99.90;;;;;;5118990;27;20019;-56
2022/03/03 06:33:34;;;;;;;76.25;37.00;;;-1.40;99.90;;;;;;5123420;27;20384;-56
2022/03/03 06:35:59;;;;;;;96.80;41.63;;;-1.40;99.90;;;;;;5132803;27;20102;-56
2022/03/03 06:38:25;;;;;;;94.70;41.70;;;-1.30;99.90;;;;;;5131116;27;20456;-56
2022/03/03 06:40:53;;;;;;;85.85;39.83;;;-1.30;99.90;;;;;;5132570;27;20011;-59
2022/03/03 06:43:18;;;;;;;85.15;40.17;;;-1.20;99.90;;;;;;5132216;27;20011;-56
2022/03/03 06:45:44;;;;;;;108.93;47.85;;;-1.20;99.90;;;;;;5138251;27;20014;-56
2022/03/03 06:48:10;;;;;;;87.38;41.17;;;-1.10;99.90;;;;;;5144132;27;20030;-56
2022/03/03 06:50:38;;;;;;;88.38;40.28;;;-1.10;99.90;;;;;;5152572;27;20184;-56
2022/03/03 06:53:04;;;;;;;85.18;40.30;;;-1.10;99.90;;;;;;5152360;27;20030;-56
2022/03/03 06:55:30;;;;;;;91.90;42.35;;;-1.10;99.90;;;;;;5153063;27;20030;-56
2022/03/03 06:57:57;;;;;;;83.40;40.10;;;-1.10;99.90;;;;;;5152926;27;20432;-56
2022/03/03 07:00:28;;;;;;;87.88;39.22;;;-1.10;99.90;;;;;;5153177;27;20067;-56
2022/03/03 07:02:54;;;;;;;89.25;40.72;;;-1.10;99.90;;;;;;5151296;27;20561;-56
2022/03/03 07:05:21;;;;;;;80.70;40.90;;;-1.00;99.90;;;;;;5153338;27;20026;-56
2022/03/03 07:07:48;;;;;;;85.72;39.33;;;-0.90;99.90;;;;;;5153379;27;20106;-56
2022/03/03 07:10:19;;;;;;;91.35;39.58;;;-1.00;99.90;;;;;;5152869;27;20495;-56
2022/03/03 07:12:45;;;;;;;85.75;38.85;;;-0.90;99.90;;;;;;5152686;27;20056;-56
2022/03/03 07:15:10;;;;;;;88.43;41.85;;;-0.80;99.90;;;;;;5147258;27;20062;-56
2022/03/03 07:17:47;;;;;;;98.35;44.00;;;-0.70;99.90;;;;;;5143895;27;20027;-55
2022/03/03 07:20:26;;;;;;;87.20;42.53;;;-0.60;99.90;;;;;;5152507;27;20098;-55
2022/03/03 07:22:55;;;;;;;88.40;40.23;;;-0.50;99.90;;;;;;5152037;27;20038;-56
2022/03/03 07:25:24;;;;;;;93.75;42.17;;;-0.40;99.90;;;;;;5152726;27;20050;-56
2022/03/03 07:27:51;;;;;;;92.63;43.73;;;-0.40;99.90;;;;;;5151679;27;20434;-56
2022/03/03 07:30:17;;;;;;;96.53;44.15;;;-0.30;99.90;;;;;;5151247;27;20019;-56
2022/03/03 07:32:58;;;;;;;103.50;46.55;;;-0.20;99.90;;;;;;5150626;27;20155;-56
2022/03/03 07:35:28;;;;;;;100.78;46.45;;;-0.20;99.90;;;;;;5151662;27;20026;-56
2022/03/03 07:38:05;;;;;;;111.18;48.58;;;-0.10;99.90;;;;;;5151381;27;20088;-56
2022/03/03 07:40:32;;;;;;;103.15;48.50;;;-0.10;99.90;;;;;;5151329;27;20498;-56
2022/03/03 07:42:58;;;;;;;113.22;47.80;;;0.00;99.90;;;;;;5150862;27;20027;-56
2022/03/03 07:45:26;;;;;;;110.20;47.33;;;0.10;99.90;;;;;;5147764;27;20025;-56
2022/03/03 07:47:54;;;;;;;105.75;46.35;;;0.20;99.90;;;;;;5142872;27;20014;-56
2022/03/03 07:50:20;;;;;;;106.70;46.75;;;0.20;99.90;;;;;;5151349;27;20049;-56
2022/03/03 07:52:45;;;;;;;99.93;45.67;;;0.30;99.90;;;;;;5150180;27;20471;-56
2022/03/03 07:55:11;;;;;;;92.35;43.72;;;0.30;99.90;;;;;;5150979;27;20415;-56
2022/03/03 07:57:49;;;;;;;105.85;49.33;;;0.40;99.90;;;;;;5150333;27;20109;-56
2022/03/03 08:00:15;;;;;;;107.78;47.03;;;0.50;99.90;;;;;;5137507;27;20023;-56
2022/03/03 08:02:43;;;;;;;102.35;48.47;;;0.60;99.90;;;;;;5115560;27;20019;-56
2022/03/03 08:05:09;;;;;;;100.55;46.85;;;0.60;99.90;;;;;;5130147;27;20026;-56
2022/03/03 08:07:44;;;;;;;108.38;49.38;;;0.60;99.90;;;;;;5129676;27;20023;-56
2022/03/03 08:10:10;;;;;;;97.35;48.38;;;0.70;99.90;;;;;;5123665;27;20375;-56
2022/03/03 08:12:37;;;;;;;97.03;46.30;;;0.80;99.90;;;;;;5116072;27;20019;-56
2022/03/03 08:15:03;;;;;;;103.10;47.65;;;0.90;99.90;;;;;;5122646;27;20050;-56
2022/03/03 08:17:33;;;;;;;113.35;49.88;;;0.90;99.90;;;;;;5124528;27;20047;-56
2022/03/03 08:20:01;;;;;;;74.77;33.83;;;1.00;99.90;;;;;;5128995;27;20284;-56
2022/03/03 08:22:27;;;;;;;100.95;45.92;;;1.00;99.90;;;;;;5128547;27;20400;-56
2022/03/03 08:24:57;;;;;;;100.47;48.05;;;1.10;99.90;;;;;;5129271;27;20027;-56
2022/03/03 08:27:24;;;;;;;104.55;47.25;;;1.20;99.90;;;;;;5125855;27;20333;-56
2022/03/03 08:29:51;;;;;;;103.13;47.17;;;1.20;99.90;;;;;;5113237;27;20586;-56
2022/03/03 08:32:19;;;;;;;109.35;52.97;;;1.30;99.90;;;;;;5121571;27;20015;-56
2022/03/03 08:35:00;;;;;;;99.78;46.13;;;1.30;99.90;;;;;;5119436;27;20023;-56
2022/03/03 08:37:36;;;;;;;104.70;49.78;;;1.40;99.90;;;;;;5114255;27;20020;-56
2022/03/03 08:40:07;;;;;;;102.78;48.42;;;1.40;99.90;;;;;;5108681;28;20089;-56
2022/03/03 08:42:37;;;;;;;;;;;1.50;99.90;;;;;;5123568;27;20119;-58
2022/03/03 08:45:05;;;;;;;99.05;47.65;;;1.60;99.90;;;;;;5129660;27;19990;-58
2022/03/03 08:47:31;;;;;;;106.55;47.47;;;1.80;99.90;;;;;;5134350;27;20376;-58
2022/03/03 08:50:00;;;;;;;104.80;50.10;;;1.90;99.90;;;;;;5117642;27;20468;-58
2022/03/03 08:52:27;;;;;;;99.57;47.53;;;2.10;99.90;;;;;;5118523;27;20058;-57
2022/03/03 08:54:53;;;;;;;94.85;47.10;;;2.30;99.90;;;;;;5113538;27;20111;-57
2022/03/03 08:57:19;;;;;;;97.28;47.53;;;2.40;99.90;;;;;;5115638;27;20477;-57
2022/03/03 08:59:44;;;;;;;99.65;48.70;;;2.50;99.90;;;;;;5112370;27;20084;-58
2022/03/03 09:02:14;;;;;;;100.28;47.95;;;2.60;99.90;;;;;;5125448;27;20049;-58
2022/03/03 09:04:39;;;;;;;89.63;45.80;;;2.60;99.90;;;;;;5129045;27;20025;-57
2022/03/03 09:07:05;;;;;;;92.28;46.90;;;2.80;99.90;;;;;;5127452;27;20034;-57
2022/03/03 09:09:30;;;;;;;90.38;44.45;;;3.00;99.90;;;;;;5128773;27;20035;-58
2022/03/03 09:11:56;;;;;;;76.03;41.10;;;3.90;99.90;;;;;;5128144;27;20033;-58
2022/03/03 09:14:22;;;;;;;63.70;36.63;;;5.40;99.90;;;;;;5129074;27;20058;-56
2022/03/03 09:16:47;;;;;;;70.63;41.40;;;7.50;99.90;;;;;;5136095;27;20033;-57
2022/03/03 09:19:13;;;;;;;63.25;39.65;;;9.40;99.50;;;;;;5149386;27;20038;-56
2022/03/03 09:21:40;;;;;;;56.70;38.50;;;11.30;90.30;;;;;;5148606;27;20098;-56
2022/03/03 09:24:06;;;;;;;54.30;36.97;;;12.50;85.50;;;;;;5149682;27;20030;-57
2022/03/03 09:26:32;;;;;;;55.63;39.42;;;13.90;73.50;;;;;;5130849;27;20039;-57
2022/03/03 09:28:57;;;;;;;58.38;39.47;;;15.10;66.80;;;;;;5110952;27;20277;-57
2022/03/03 09:31:23;;;;;;;58.40;41.70;;;15.10;62.90;;;;;;5117770;27;20023;-57
2022/03/03 09:33:50;;;;;;;49.78;36.72;;;16.00;59.40;;;;;;5107369;27;20043;-57
2022/03/03 09:36:18;;;;;;;45.30;33.50;;;16.40;59.60;;;;;;5140372;27;20450;-58
2022/03/03 09:38:43;;;;;;;47.15;35.33;;;16.90;57.40;;;;;;5149319;27;20499;-57
2022/03/03 09:41:09;;;;;;;47.03;34.30;;;17.60;55.20;;;;;;5147941;27;20033;-58
2022/03/03 09:43:35;;;;;;;50.95;36.60;;;18.30;53.00;;;;;;5148802;27;20019;-58
2022/03/03 09:46:00;;;;;;;48.83;36.38;;;18.30;51.70;;;;;;5148524;27;20047;-57
2022/03/03 09:48:26;;;;;;;45.97;34.42;;;18.00;50.70;;;;;;5149092;27;20031;-58
2022/03/03 09:50:54;;;;;;;49.35;35.95;;;18.10;52.30;;;;;;5148737;27;20110;-58
2022/03/03 09:53:19;;;;;;;44.80;33.95;;;19.30;49.80;;;;;;5145876;27;20018;-58
2022/03/03 09:55:47;;;;;;;45.38;33.20;;;19.20;48.30;;;;;;5148751;27;20082;-58
2022/03/03 09:58:13;;;;;;;42.45;32.05;;;19.20;48.30;;;;;;5148627;27;20060;-56
2022/03/03 10:00:41;;;;;;;48.97;37.13;;;19.50;47.70;;;;;;5146819;27;20163;-58
2022/03/03 10:03:11;;;;;;;43.13;34.78;;;19.60;47.60;;;;;;5148745;27;20571;-58
2022/03/03 10:05:47;;;;;;;43.75;33.53;;;19.80;46.10;;;;;;5135264;27;20048;-56
2022/03/03 10:08:15;;;;;;;39.95;31.38;;;20.10;47.90;;;;;;5107525;28;20290;-56
2022/03/03 10:10:43;;;;;;;43.85;33.38;;;20.90;46.10;;;;;;5105774;28;20054;-56
2022/03/03 10:13:10;;;;;;;39.70;30.50;;;21.10;45.60;;;;;;5106805;28;20177;-56
2022/03/03 10:15:37;;;;;;;42.67;33.50;;;21.10;45.80;;;;;;5106923;28;20016;-56
2022/03/03 10:18:06;;;;;;;41.13;32.30;;;21.00;45.10;;;;;;5137244;27;20027;-56
2022/03/03 10:20:50;;;;;;;42.38;34.13;;;22.10;43.90;;;;;;5147502;27;20050;-56
2022/03/03 10:23:17;;;;;;;50.20;39.00;;;22.20;43.80;;;;;;5147204;27;20018;-56
2022/03/03 10:25:45;;;;;;;49.53;39.30;;;22.00;42.50;;;;;;5148111;27;20027;-56
2022/03/03 10:28:19;;;;;;;42.83;34.92;;;22.50;41.90;;;;;;5147765;27;20102;-56
2022/03/03 10:30:53;;;;;;;46.30;36.55;;;23.30;41.50;;;;;;5137345;27;20452;-56
2022/03/03 10:33:20;;;;;;;40.13;32.08;;;22.60;41.80;;;;;;5114667;28;20157;-56
2022/03/03 10:36:10;;;;;;;39.25;33.05;;;22.30;42.00;;;;;;5115118;28;20071;-56
2022/03/03 10:38:49;;;;;;;37.37;31.20;;;21.70;42.70;;;;;;5115463;28;20055;-56
2022/03/03 10:41:43;;;;;;;41.60;32.67;;;21.30;43.40;;;;;;5115239;27;20408;-56
2022/03/03 10:44:30;;;;;;;40.15;32.60;;;21.40;44.10;;;;;;5116376;28;20030;-56
2022/03/03 10:47:07;;;;;;;43.83;35.22;;;21.10;43.90;;;;;;5124302;27;20023;-56
2022/03/03 10:49:38;;;;;;;41.35;34.38;;;21.20;44.90;;;;;;5122599;27;20102;-56
2022/03/03 10:52:15;;;;;;;40.20;32.53;;;22.10;43.50;;;;;;5128351;27;20015;-57
2022/03/03 10:54:57;;;;;;;40.17;31.63;;;22.80;42.30;;;;;;5130948;27;20047;-56
2022/03/03 10:57:45;;;;;;;39.58;31.85;;;22.30;42.70;;;;;;5128556;27;20110;-56
2022/03/03 11:00:24;;;;;;;41.78;32.53;;;21.60;43.30;;;;;;5130330;27;20023;-55
2022/03/03 11:02:52;;;;;;;43.75;33.20;;;21.00;44.40;;;;;;5128298;27;20360;-56
2022/03/03 11:05:19;;;;;;;40.42;32.85;;;21.20;44.20;;;;;;5129575;27;20015;-56
2022/03/03 11:07:47;;;;;;;41.97;33.28;;;21.60;43.10;;;;;;5128923;27;20080;-56
2022/03/03 11:10:18;;;;;;;38.72;30.83;;;21.20;43.80;;;;;;5128326;27;20035;-55
2022/03/03 11:12:45;;;;;;;37.78;31.02;;;21.40;44.20;;;;;;5127733;27;20127;-55
2022/03/03 11:15:12;;;;;;;41.25;33.08;;;20.90;44.90;;;;;;5124342;27;20043;-56
2022/03/03 11:17:39;;;;;;;40.13;32.33;;;21.50;44.00;;;;;;5132176;27;20090;-56
2022/03/03 11:20:06;;;;;;;36.33;30.35;;;20.80;44.60;;;;;;5148370;27;20026;-56
2022/03/03 11:22:32;;;;;;;42.95;32.47;;;21.40;44.00;;;;;;5150401;27;20027;-55
2022/03/03 11:25:00;;;;;;;40.65;31.58;;;21.00;45.70;;;;;;5125438;27;20020;-56
2022/03/03 11:27:36;;;;;;;40.05;31.95;;;21.00;44.40;;;;;;5121136;27;20058;-55
2022/03/03 11:30:31;;;;;;;45.40;33.78;;;19.80;45.40;;;;;;5129944;27;20023;-55
2022/03/03 11:33:25;;;;;;;40.88;30.15;;;17.10;50.70;;;;;;5121230;27;20045;-55
2022/03/03 11:36:03;;;;;;;42.40;30.50;;;14.80;54.90;;;;;;5115275;27;20023;-55
2022/03/03 11:38:53;;;;;;;42.50;28.65;;;13.50;57.80;;;;;;5109396;28;20023;-55
2022/03/03 11:41:23;;;;;;;48.22;30.25;;;12.00;61.90;;;;;;5059866;28;20031;-55
2022/03/03 11:43:57;;;;;;;;;;;10.80;65.70;;;;;;5109491;28;20614;-55
2022/03/03 11:46:46;;;;;;;49.80;31.33;;;9.40;68.70;;;;;;5118066;27;19934;-56
2022/03/03 11:49:17;;;;;;;44.63;27.17;;;8.10;74.70;;;;;;5133596;27;20391;-56
2022/03/03 11:51:42;;;;;;;48.58;28.42;;;7.40;82.00;;;;;;5150249;27;20537;-54
2022/03/03 11:54:12;;;;;;;51.42;30.27;;;6.90;91.10;;;;;;5149940;27;20229;-55
2022/03/03 11:57:09;;;;;;;56.50;30.98;;;6.60;94.60;;;;;;5142858;27;20023;-55
2022/03/03 11:59:40;;;;;;;47.60;29.60;;;6.50;98.40;;;;;;5115863;27;20473;-56
2022/03/03 12:02:05;;;;;;;49.33;29.05;;;6.40;99.90;;;;;;5118725;27;20074;-56
2022/03/03 12:04:34;;;;;;;49.65;29.25;;;6.30;99.90;;;;;;5116842;27;20043;-56
2022/03/03 12:07:00;;;;;;;50.70;28.40;;;6.00;99.90;;;;;;5118139;27;20512;-56
2022/03/03 12:09:30;;;;;;;49.67;27.35;;;6.30;99.90;;;;;;5118570;27;20099;-56
2022/03/03 12:12:16;;;;;;;45.43;26.67;;;6.20;99.90;;;;;;5116018;27;20084;-56
2022/03/03 12:15:00;;;;;;;46.78;26.42;;;6.00;99.90;;;;;;5118113;27;20032;-56
2022/03/03 12:17:42;;;;;;;42.40;23.70;;;5.80;99.90;;;;;;5120828;27;20426;-56
2022/03/03 12:20:40;;;;;;;40.65;23.58;;;5.50;99.90;;;;;;5122079;27;20034;-56
2022/03/03 12:23:16;;;;;;;36.35;20.40;;;5.30;99.90;;;;;;5111079;27;20127;-56
2022/03/03 12:25:47;;;;;;;40.65;21.95;;;5.30;99.90;;;;;;5111413;27;20098;-56
2022/03/03 12:28:18;;;;;;;40.22;21.38;;;5.10;99.90;;;;;;5108563;28;20119;-56
2022/03/03 12:30:45;;;;;;;39.55;19.67;;;5.20;99.90;;;;;;5108403;28;20055;-56
2022/03/03 12:33:32;;;;;;;40.58;19.67;;;5.10;99.90;;;;;;5109326;28;20435;-56
2022/03/03 12:35:59;;;;;;;54.08;29.02;;;5.20;99.90;;;;;;5138465;27;20034;-56